createdAt,value
2019-04-16T00:00:26.551Z,5.60
2019-04-16T00:05:35.179Z,5.60
2019-04-16T00:10:48.958Z,5.50
2019-04-16T00:15:52.725Z,5.20
2019-04-16T00:21:11.209Z,5.10
2019-04-16T00:26:14.961Z,5.20
2019-04-16T00:31:18.667Z,5.20
2019-04-16T00:36:22.758Z,5.00
2019-04-16T00:41:26.431Z,5.00
2019-04-16T00:46:30.114Z,4.80
2019-04-16T00:51:33.828Z,4.80
2019-04-16T00:56:37.538Z,4.60
2019-04-16T01:01:41.278Z,4.50
2019-04-16T01:06:44.979Z,4.20
2019-04-16T01:11:49.640Z,4.50
2019-04-16T01:16:53.823Z,4.60
2019-04-16T01:21:57.509Z,4.30
2019-04-16T01:27:01.397Z,4.00
2019-04-16T01:32:22.387Z,3.80
2019-04-16T01:37:38.191Z,3.70
2019-04-16T01:42:41.903Z,3.80
2019-04-16T01:47:46.025Z,3.90
2019-04-16T01:52:50.539Z,4.00
2019-04-16T01:57:54.349Z,3.90
2019-04-16T02:02:58.569Z,3.60
2019-04-16T02:08:02.338Z,3.50
2019-04-16T02:13:06.156Z,3.40
2019-04-16T02:18:09.846Z,3.40
2019-04-16T02:23:16.487Z,3.30
2019-04-16T02:28:21.485Z,3.30
2019-04-16T02:33:24.387Z,3.30
2019-04-16T02:38:32.706Z,3.20
2019-04-16T02:43:40.856Z,3.10
2019-04-16T02:48:49.970Z,3.10
2019-04-16T02:54:02.065Z,3.20
2019-04-16T02:59:13.040Z,3.20
2019-04-16T03:04:19.921Z,3.00
2019-04-16T03:09:24.079Z,2.90
2019-04-16T03:14:30.021Z,2.80
2019-04-16T03:19:39.040Z,2.80
2019-04-16T03:24:44.456Z,2.60
2019-04-16T03:29:48.793Z,2.50
2019-04-16T03:34:54.077Z,2.40
2019-04-16T03:39:57.853Z,2.50
2019-04-16T03:45:01.578Z,2.40
2019-04-16T03:50:06.063Z,2.60
2019-04-16T03:55:11.198Z,2.50
2019-04-16T04:00:15.327Z,2.30
2019-04-16T04:05:19.383Z,1.90
2019-04-16T04:10:30.439Z,1.90
2019-04-16T04:15:28.783Z,2.30
2019-04-16T04:20:33.016Z,2.40
2019-04-16T04:25:37.096Z,2.50
2019-04-16T04:30:40.969Z,2.30
2019-04-16T04:35:44.648Z,2.40
2019-04-16T04:40:50.811Z,2.20
2019-04-16T04:45:53.720Z,2.20
2019-04-16T04:50:57.383Z,2.30
2019-04-16T04:56:01.290Z,2.30
2019-04-16T05:01:05.041Z,2.30
2019-04-16T05:06:10.231Z,2.40
2019-04-16T05:11:15.849Z,2.60
2019-04-16T05:16:19.391Z,2.70
2019-04-16T05:21:23.105Z,3.00
2019-04-16T05:26:26.774Z,3.20
2019-04-16T05:31:31.181Z,3.20
2019-04-16T05:36:46.219Z,3.20
2019-04-16T05:41:50.491Z,3.30
2019-04-16T05:46:54.401Z,3.50
2019-04-16T05:52:02.834Z,3.90
2019-04-16T05:57:03.907Z,3.80
2019-04-16T06:02:18.272Z,3.80
2019-04-16T06:07:29.726Z,4.00
2019-04-16T06:12:49.019Z,4.30
2019-04-16T06:18:10.891Z,4.70
2019-04-16T06:23:22.219Z,5.00
2019-04-16T06:28:56.344Z,5.30
2019-04-16T06:34:10.427Z,5.50
2019-04-16T06:39:21.115Z,5.80
2019-04-16T06:44:29.847Z,6.10
2019-04-16T06:49:43.667Z,6.40
2019-04-16T06:55:14.878Z,6.70
2019-04-16T07:00:38.975Z,7.00
2019-04-16T07:06:05.013Z,7.20
2019-04-16T07:11:09.986Z,7.70
2019-04-16T07:16:13.684Z,8.10
2019-04-16T07:21:18.273Z,8.40
2019-04-16T07:26:22.206Z,8.70
2019-04-16T07:31:34.215Z,9.10
2019-04-16T07:37:08.450Z,9.50
2019-04-16T07:42:22.139Z,10.00
2019-04-16T07:47:39.340Z,10.40
2019-04-16T07:52:58.196Z,10.80
2019-04-16T07:58:01.883Z,11.00
2019-04-16T08:03:05.615Z,11.10
2019-04-16T08:08:09.725Z,11.30
2019-04-16T08:13:16.857Z,12.50
2019-04-16T08:18:20.790Z,13.90
2019-04-16T08:23:28.204Z,15.90
2019-04-16T08:28:31.962Z,16.40
2019-04-16T08:33:35.870Z,15.70
2019-04-16T08:38:39.835Z,16.20
2019-04-16T08:43:43.526Z,18.30
2019-04-16T08:48:49.316Z,19.50
2019-04-16T08:53:52.799Z,19.10
2019-04-16T08:59:00.646Z,20.80
2019-04-16T09:04:03.076Z,20.00
2019-04-16T09:09:24.783Z,21.10
2019-04-16T09:14:30.965Z,22.60
2019-04-16T09:19:35.739Z,25.60
2019-04-16T09:24:46.944Z,25.90
2019-04-16T09:30:10.733Z,27.30
2019-04-16T09:35:20.969Z,26.90
2019-04-16T09:40:42.367Z,26.80
2019-04-16T09:45:46.123Z,26.90
2019-04-16T09:50:49.885Z,27.30
2019-04-16T09:56:22.228Z,26.60
2019-04-16T10:02:25.099Z,28.20
2019-04-16T10:07:25.165Z,27.50
2019-04-16T10:12:58.204Z,29.80
2019-04-16T10:18:28.700Z,33.50
2019-04-16T10:24:29.526Z,32.40
2019-04-16T10:36:17.948Z,29.20
2019-04-16T10:41:56.245Z,29.90
2019-04-16T10:47:19.868Z,30.40
2019-04-16T10:52:42.693Z,28.40
2019-04-16T10:58:04.421Z,30.40
2019-04-16T11:03:28.783Z,30.10
2019-04-16T11:08:32.919Z,31.20
2019-04-16T11:13:40.843Z,31.90
2019-04-16T11:18:44.627Z,30.80
2019-04-16T11:23:48.408Z,33.10
2019-04-16T11:28:52.150Z,32.80
2019-04-16T11:33:55.856Z,34.30
2019-04-16T11:38:59.924Z,30.60
2019-04-16T11:44:15.141Z,27.50
2019-04-16T11:49:09.115Z,27.90
2019-04-16T11:54:12.843Z,30.00
2019-04-16T11:59:16.804Z,27.50
2019-04-16T12:04:29.716Z,28.10
2019-04-16T12:09:41.647Z,29.60
2019-04-16T12:14:58.206Z,29.40
2019-04-16T12:20:32.664Z,31.20
2019-04-16T12:25:56.138Z,33.30
2019-04-16T12:31:18.757Z,31.10
2019-04-16T12:36:42.233Z,29.10
2019-04-16T12:42:05.616Z,26.20
2019-04-16T12:47:44.849Z,27.10
2019-04-16T12:53:02.069Z,29.20
2019-04-16T12:58:19.099Z,28.50
2019-04-16T13:03:52.769Z,31.20
2019-04-16T13:15:45.286Z,33.00
2019-04-16T13:21:23.347Z,34.10
2019-04-16T13:30:20.379Z,33.30
2019-04-16T13:32:14.007Z,30.80
2019-04-16T13:37:19.065Z,31.10
2019-04-16T13:42:22.753Z,32.10
2019-04-16T13:47:26.457Z,32.60
2019-04-16T13:52:30.445Z,31.10
2019-04-16T13:57:35.417Z,32.60
2019-04-16T14:02:53.527Z,31.50
2019-04-16T14:07:57.599Z,31.90
2019-04-16T14:13:01.290Z,32.20
2019-04-16T14:18:05.310Z,31.80
2019-04-16T14:23:12.235Z,31.60
2019-04-16T14:28:18.121Z,29.50
2019-04-16T14:33:31.445Z,27.60
2019-04-16T14:38:47.042Z,29.70
2019-04-16T14:44:05.895Z,31.10
2019-04-16T14:49:10.941Z,30.40
2019-04-16T14:54:22.600Z,30.70
2019-04-16T14:59:35.167Z,28.20
2019-04-16T15:04:57.109Z,27.90
2019-04-16T15:10:19.728Z,27.70
2019-04-16T15:15:48.999Z,28.00
2019-04-16T15:21:12.387Z,27.60
2019-04-16T15:26:29.986Z,27.30
2019-04-16T15:31:54.035Z,26.60
2019-04-16T15:37:13.122Z,26.20
2019-04-16T15:42:39.003Z,26.30
2019-04-16T15:47:56.067Z,26.10
2019-04-16T15:53:03.437Z,26.10
2019-04-16T15:58:22.503Z,24.90
2019-04-16T16:03:40.586Z,23.90
2019-04-16T16:08:48.665Z,23.00
2019-04-16T16:13:52.443Z,22.00
2019-04-16T16:18:57.167Z,21.40
2019-04-16T16:24:06.472Z,21.10
2019-04-16T16:29:06.475Z,20.90
2019-04-16T16:34:10.165Z,20.80
2019-04-16T16:39:13.882Z,20.80
2019-04-16T16:44:17.569Z,20.90
2019-04-16T16:49:21.897Z,20.90
2019-04-16T16:54:26.161Z,20.90
2019-04-16T16:59:33.892Z,20.80
2019-04-16T17:04:41.574Z,20.50
2019-04-16T17:09:45.675Z,20.00
2019-04-16T17:14:49.362Z,19.80
2019-04-16T17:19:53.175Z,19.60
2019-04-16T17:24:57.944Z,19.20
2019-04-16T17:30:01.726Z,18.90
2019-04-16T17:35:07.583Z,18.50
2019-04-16T17:40:33.998Z,18.10
2019-04-16T17:45:58.262Z,17.30
2019-04-16T17:51:09.839Z,16.80
2019-04-16T17:56:31.711Z,16.20
2019-04-16T18:01:48.531Z,16.00
2019-04-16T18:07:05.357Z,15.80
2019-04-16T18:12:43.988Z,15.50
2019-04-16T18:18:05.703Z,15.40
2019-04-16T18:23:19.549Z,15.10
2019-04-16T18:28:28.073Z,14.80
2019-04-16T18:33:59.920Z,14.70
2019-04-16T18:39:29.550Z,14.60
2019-04-16T18:45:10.322Z,14.40
2019-04-16T18:50:22.385Z,14.20
2019-04-16T18:55:23.948Z,14.10
2019-04-16T19:00:44.119Z,13.90
2019-04-16T19:05:47.921Z,13.90
2019-04-16T19:10:52.800Z,13.70
2019-04-16T19:15:56.694Z,13.40
2019-04-16T19:21:00.387Z,13.00
2019-04-16T19:26:04.630Z,13.00
2019-04-16T19:31:08.381Z,13.00
2019-04-16T19:36:12.424Z,12.90
2019-04-16T19:41:16.196Z,12.80
2019-04-16T19:46:19.970Z,12.80
2019-04-16T19:51:23.807Z,12.70
2019-04-16T19:56:27.590Z,12.60
2019-04-16T20:01:32.034Z,12.50
2019-04-16T20:06:35.826Z,12.30
2019-04-16T20:11:39.765Z,12.30
2019-04-16T20:16:43.669Z,12.20
2019-04-16T20:21:47.534Z,12.00
2019-04-16T20:26:52.770Z,12.00
2019-04-16T20:31:58.382Z,12.00
2019-04-16T20:37:02.248Z,11.80
2019-04-16T20:42:06.007Z,11.80
2019-04-16T20:47:09.697Z,11.50
2019-04-16T20:52:13.465Z,11.40
2019-04-16T20:57:17.644Z,11.30
2019-04-16T21:02:24.021Z,11.00
2019-04-16T21:07:27.900Z,10.70
2019-04-16T21:12:31.882Z,10.80
2019-04-16T21:17:38.380Z,10.70
2019-04-16T21:22:41.287Z,10.60
2019-04-16T21:27:51.611Z,10.40
2019-04-16T21:33:03.774Z,10.00
2019-04-16T21:38:23.380Z,9.80
2019-04-16T21:43:27.059Z,9.70
2019-04-16T21:48:30.731Z,9.70
2019-04-16T21:53:34.541Z,9.60
2019-04-16T21:58:43.298Z,9.50
2019-04-16T22:03:51.555Z,9.40
2019-04-16T22:09:03.283Z,9.20
2019-04-16T22:14:06.610Z,9.20
2019-04-16T22:19:14.052Z,9.00
2019-04-16T22:24:22.891Z,8.90
2019-04-16T22:29:27.039Z,8.90
2019-04-16T22:34:30.783Z,8.80
2019-04-16T22:39:50.822Z,8.80
2019-04-16T22:45:01.196Z,8.60
2019-04-16T22:50:15.205Z,8.60
2019-04-16T22:55:10.653Z,8.30
2019-04-16T23:00:32.752Z,8.30
2019-04-16T23:05:36.415Z,8.10
2019-04-16T23:10:40.431Z,7.90
2019-04-16T23:15:44.162Z,7.70
2019-04-16T23:20:47.863Z,7.60
2019-04-16T23:25:51.582Z,7.40
2019-04-16T23:30:55.270Z,7.30
2019-04-16T23:35:59.280Z,7.30
2019-04-16T23:41:03.037Z,7.20
2019-04-16T23:46:22.424Z,7.20
2019-04-16T23:51:34.796Z,7.30
2019-04-16T23:56:41.897Z,7.20
